createdAt,value
2018-10-07T00:04:10.095Z,11.70
2018-10-07T00:09:14.916Z,11.80
2018-10-07T00:14:19.008Z,11.80
2018-10-07T00:19:23.190Z,11.90
2018-10-07T00:24:27.278Z,12.00
2018-10-07T00:29:31.854Z,12.00
2018-10-07T00:34:36.096Z,12.10
2018-10-07T00:39:40.615Z,12.20
2018-10-07T00:44:44.733Z,12.20
2018-10-07T00:49:49.146Z,12.20
2018-10-07T00:54:53.278Z,12.30
2018-10-07T00:59:57.716Z,12.20
2018-10-07T01:05:02.374Z,12.10
2018-10-07T01:10:06.870Z,12.00
2018-10-07T01:15:10.953Z,12.00
2018-10-07T01:20:15.663Z,11.90
2018-10-07T01:25:20.121Z,11.90
2018-10-07T01:35:59.234Z,11.80
2018-10-07T01:41:03.864Z,11.70
2018-10-07T01:46:09.192Z,11.50
2018-10-07T01:51:13.269Z,11.40
2018-10-07T01:56:17.665Z,11.20
2018-10-07T02:01:22.035Z,11.10
2018-10-07T02:06:26.764Z,10.80
2018-10-07T02:11:31.012Z,10.60
2018-10-07T02:16:35.326Z,10.40
2018-10-07T02:21:39.416Z,10.30
2018-10-07T02:26:44.068Z,10.30
2018-10-07T02:31:48.439Z,10.30
2018-10-07T02:36:53.448Z,10.40
2018-10-07T02:41:57.675Z,10.50
2018-10-07T02:47:01.831Z,10.50
2018-10-07T02:52:06.853Z,10.40
2018-10-07T02:57:11.424Z,10.50
2018-10-07T03:02:15.846Z,10.50
2018-10-07T03:07:20.135Z,10.50
2018-10-07T03:12:24.211Z,10.50
2018-10-07T03:17:29.243Z,10.60
2018-10-07T03:22:33.837Z,10.70
2018-10-07T03:27:38.608Z,10.80
2018-10-07T03:32:42.657Z,10.80
2018-10-07T03:37:46.762Z,10.90
2018-10-07T03:42:51.675Z,11.10
2018-10-07T03:47:56.057Z,11.20
2018-10-07T03:53:00.137Z,11.40
2018-10-07T03:58:04.711Z,11.50
2018-10-07T04:03:09.430Z,11.40
2018-10-07T04:08:13.923Z,11.30
2018-10-07T04:13:18.258Z,11.20
2018-10-07T04:18:22.355Z,11.00
2018-10-07T04:23:26.939Z,10.90
2018-10-07T04:28:31.520Z,10.80
2018-10-07T04:33:36.115Z,10.80
2018-10-07T04:38:41.077Z,10.90
2018-10-07T04:43:45.157Z,10.90
2018-10-07T04:48:49.247Z,10.90
2018-10-07T04:53:53.957Z,10.70
2018-10-07T04:58:58.621Z,10.50
2018-10-07T05:04:03.141Z,10.30
2018-10-07T05:09:09.342Z,10.20
2018-10-07T05:14:14.178Z,10.00
2018-10-07T05:19:18.847Z,9.80
2018-10-07T05:24:22.913Z,9.60
2018-10-07T05:29:26.999Z,9.40
2018-10-07T05:34:31.702Z,9.30
2018-10-07T05:39:36.301Z,9.10
2018-10-07T05:44:40.653Z,9.00
2018-10-07T05:49:44.679Z,9.00
2018-10-07T05:54:49.063Z,9.20
2018-10-07T05:59:53.604Z,9.40
2018-10-07T06:04:59.233Z,9.50
2018-10-07T06:10:03.364Z,9.50
2018-10-07T06:15:44.852Z,9.60
2018-10-07T06:20:49.018Z,9.80
2018-10-07T06:25:53.139Z,10.60
2018-10-07T06:30:58.008Z,12.10
2018-10-07T06:36:02.424Z,13.00
2018-10-07T06:41:06.909Z,13.40
2018-10-07T06:46:11.054Z,13.00
2018-10-07T06:51:15.178Z,12.60
2018-10-07T06:56:19.693Z,12.40
2018-10-07T07:01:25.688Z,13.00
2018-10-07T07:06:30.001Z,14.50
2018-10-07T07:11:35.244Z,18.20
2018-10-07T07:16:40.568Z,22.40
2018-10-07T07:21:45.216Z,24.60
2018-10-07T07:26:49.367Z,22.90
2018-10-07T07:31:53.636Z,22.60
2018-10-07T07:36:58.482Z,23.70
2018-10-07T07:42:03.121Z,25.30
2018-10-07T07:47:07.543Z,26.20
2018-10-07T07:52:12.195Z,26.40
2018-10-07T07:57:16.258Z,28.00
2018-10-07T08:02:21.634Z,28.30
2018-10-07T08:07:26.093Z,28.00
2018-10-07T08:12:30.508Z,27.20
2018-10-07T08:17:34.717Z,26.10
2018-10-07T08:22:39.161Z,26.90
2018-10-07T08:27:43.898Z,26.30
2018-10-07T08:32:48.864Z,25.50
2018-10-07T08:37:53.357Z,26.50
2018-10-07T08:42:57.928Z,27.50
2018-10-07T08:48:02.360Z,27.50
2018-10-07T08:53:07.487Z,26.70
2018-10-07T08:58:11.900Z,26.20
2018-10-07T09:03:16.069Z,26.40
2018-10-07T09:08:20.595Z,23.00
2018-10-07T09:13:25.055Z,21.30
2018-10-07T09:18:29.685Z,21.80
2018-10-07T09:23:33.959Z,24.70
2018-10-07T09:28:38.163Z,27.40
2018-10-07T09:33:42.679Z,27.70
2018-10-07T09:38:47.117Z,28.10
2018-10-07T09:43:51.806Z,28.90
2018-10-07T09:48:56.050Z,27.90
2018-10-07T09:54:00.180Z,26.60
2018-10-07T09:59:04.416Z,25.70
2018-10-07T10:04:09.498Z,24.90
2018-10-07T10:09:14.074Z,24.70
2018-10-07T10:14:18.637Z,24.50
2018-10-07T10:19:26.529Z,25.00
2018-10-07T10:24:36.957Z,24.00
2018-10-07T10:29:45.209Z,23.10
2018-10-07T10:34:57.181Z,22.70
2018-10-07T10:40:02.911Z,22.30
2018-10-07T10:45:07.679Z,22.70
2018-10-07T10:50:23.068Z,23.10
2018-10-07T10:55:35.766Z,22.70
2018-10-07T11:00:48.403Z,23.10
2018-10-07T11:06:04.113Z,23.20
2018-10-07T11:11:21.770Z,22.90
2018-10-07T11:16:42.080Z,22.60
2018-10-07T11:22:09.031Z,22.40
2018-10-07T11:27:53.818Z,22.30
2018-10-07T11:33:12.192Z,22.80
2018-10-07T11:38:22.975Z,22.60
2018-10-07T11:44:03.521Z,22.30
2018-10-07T11:49:12.947Z,22.50
2018-10-07T11:54:21.584Z,22.80
2018-10-07T11:59:25.699Z,23.10
2018-10-07T12:04:29.789Z,23.20
2018-10-07T12:09:34.470Z,23.00
2018-10-07T12:14:38.980Z,23.10
2018-10-07T12:19:43.916Z,22.70
2018-10-07T12:24:48.209Z,22.80
2018-10-07T12:29:52.348Z,23.00
2018-10-07T12:34:56.956Z,22.90
2018-10-07T12:40:01.549Z,22.80
2018-10-07T12:45:05.984Z,23.10
2018-10-07T12:50:10.121Z,22.70
2018-10-07T12:55:14.203Z,23.00
2018-10-07T13:00:18.986Z,22.80
2018-10-07T13:05:23.696Z,23.20
2018-10-07T13:10:28.107Z,23.10
2018-10-07T13:15:32.698Z,23.00
2018-10-07T13:20:36.879Z,22.90
2018-10-07T13:25:41.621Z,23.10
2018-10-07T13:30:46.534Z,23.00
2018-10-07T13:35:50.918Z,23.00
2018-10-07T13:40:55.089Z,23.10
2018-10-07T13:46:00.340Z,22.80
2018-10-07T13:51:04.451Z,22.70
2018-10-07T13:56:08.864Z,22.40
2018-10-07T14:01:12.974Z,22.40
2018-10-07T14:06:17.761Z,22.40
2018-10-07T14:11:22.502Z,22.40
2018-10-07T14:16:27.191Z,22.50
2018-10-07T14:21:31.301Z,22.30
2018-10-07T14:26:35.445Z,22.30
2018-10-07T14:31:39.558Z,22.30
2018-10-07T14:36:45.102Z,22.20
2018-10-07T14:41:50.145Z,22.00
2018-10-07T14:46:54.244Z,22.00
2018-10-07T14:51:58.922Z,21.90
2018-10-07T14:57:05.261Z,21.80
2018-10-07T15:02:09.369Z,21.60
2018-10-07T15:07:13.552Z,21.60
2018-10-07T15:12:17.767Z,21.40
2018-10-07T15:17:22.604Z,21.30
2018-10-07T15:22:27.018Z,21.10
2018-10-07T15:27:31.511Z,21.10
2018-10-07T15:32:35.750Z,21.10
2018-10-07T15:37:42.524Z,21.10
2018-10-07T15:42:46.816Z,20.90
2018-10-07T15:47:51.123Z,20.60
2018-10-07T15:52:55.590Z,20.40
2018-10-07T15:58:02.508Z,20.20
2018-10-07T16:03:07.240Z,20.00
2018-10-07T16:08:11.864Z,19.80
2018-10-07T16:13:16.615Z,19.60
2018-10-07T16:18:21.145Z,19.30
2018-10-07T16:23:25.823Z,19.10
2018-10-07T16:28:30.160Z,18.90
2018-10-07T16:33:34.479Z,18.60
2018-10-07T16:38:39.421Z,18.40
2018-10-07T16:43:43.575Z,18.20
2018-10-07T16:48:48.032Z,18.00
2018-10-07T16:53:52.638Z,17.90
2018-10-07T16:58:57.200Z,17.80
2018-10-07T17:04:01.470Z,17.80
2018-10-07T17:09:07.472Z,17.70
2018-10-07T17:14:13.302Z,17.50
2018-10-07T17:19:18.485Z,17.30
2018-10-07T17:24:22.788Z,17.20
2018-10-07T17:29:27.168Z,17.00
2018-10-07T17:34:31.560Z,16.90
2018-10-07T17:39:35.941Z,16.80
2018-10-07T17:44:40.163Z,16.70
2018-10-07T17:49:44.819Z,16.60
2018-10-07T17:54:50.386Z,16.50
2018-10-07T17:59:55.721Z,16.40
2018-10-07T18:05:00.407Z,16.30
2018-10-07T18:10:05.061Z,16.10
2018-10-07T18:15:09.625Z,16.00
2018-10-07T18:20:14.184Z,15.90
2018-10-07T18:25:18.491Z,15.80
2018-10-07T18:30:24.731Z,15.70
2018-10-07T18:35:29.303Z,15.60
2018-10-07T18:40:33.532Z,15.60
2018-10-07T18:45:37.954Z,15.60
2018-10-07T18:50:42.775Z,15.60
2018-10-07T18:55:47.107Z,15.50
2018-10-07T19:00:51.863Z,15.30
2018-10-07T19:05:56.354Z,15.10
2018-10-07T19:11:00.881Z,14.90
2018-10-07T19:16:05.092Z,14.80
2018-10-07T19:21:09.481Z,14.70
2018-10-07T19:26:14.727Z,14.20
2018-10-07T19:31:20.943Z,13.80
2018-10-07T19:36:25.586Z,13.60
2018-10-07T19:41:30.537Z,13.50
2018-10-07T19:46:35.907Z,13.40
2018-10-07T19:51:40.909Z,13.30
2018-10-07T19:56:46.030Z,13.20
2018-10-07T20:01:51.281Z,13.00
2018-10-07T20:06:56.806Z,13.00
2018-10-07T20:12:01.632Z,12.90
2018-10-07T20:17:06.385Z,12.80
2018-10-07T20:22:13.365Z,12.80
2018-10-07T20:27:18.577Z,12.80
2018-10-07T20:32:22.673Z,12.80
2018-10-07T20:37:26.732Z,12.80
2018-10-07T20:42:31.248Z,12.70
2018-10-07T20:47:36.118Z,12.80
2018-10-07T20:52:40.544Z,12.70
2018-10-07T20:57:44.747Z,12.70
2018-10-07T21:02:48.943Z,12.60
2018-10-07T21:07:53.521Z,12.60
2018-10-07T21:12:57.972Z,12.50
2018-10-07T21:18:03.236Z,12.50
2018-10-07T21:23:07.443Z,12.50
2018-10-07T21:28:12.014Z,12.40
2018-10-07T21:33:17.630Z,12.40
2018-10-07T21:38:21.796Z,12.30
2018-10-07T21:43:25.918Z,12.20
2018-10-07T21:48:30.014Z,12.00
2018-10-07T21:53:35.092Z,12.00
2018-10-07T21:58:39.595Z,11.70
2018-10-07T22:03:43.736Z,11.50
2018-10-07T22:08:47.840Z,11.30
2018-10-07T22:13:52.096Z,11.10
2018-10-07T22:18:56.550Z,11.00
2018-10-07T22:24:01.427Z,11.00
2018-10-07T22:29:05.517Z,11.10
2018-10-07T22:34:10.354Z,11.00
2018-10-07T22:39:14.657Z,10.90
2018-10-07T22:44:19.504Z,10.80
2018-10-07T22:49:23.666Z,10.80
2018-10-07T22:54:27.779Z,10.70
2018-10-07T22:59:33.276Z,10.70
2018-10-07T23:04:37.978Z,10.70
2018-10-07T23:09:42.160Z,10.70
2018-10-07T23:14:46.275Z,10.50
2018-10-07T23:19:50.484Z,10.40
2018-10-07T23:24:56.325Z,10.30
2018-10-07T23:30:01.541Z,10.10
2018-10-07T23:35:05.733Z,10.00
2018-10-07T23:40:10.942Z,9.90
2018-10-07T23:45:15.207Z,9.80
2018-10-07T23:50:19.781Z,9.60
2018-10-07T23:55:23.885Z,9.60
